createdAt,value
2019-06-07T00:00:45.207Z,99.90
2019-06-07T00:03:46.933Z,99.90
2019-06-07T00:06:48.254Z,99.90
2019-06-07T00:09:50.137Z,99.90
2019-06-07T00:12:51.423Z,99.90
2019-06-07T00:15:53.497Z,99.90
2019-06-07T00:18:54.734Z,99.90
2019-06-07T00:25:00.186Z,99.90
2019-06-07T00:28:01.405Z,99.90
2019-06-07T00:31:02.927Z,99.90
2019-06-07T00:34:04.269Z,99.90
2019-06-07T00:37:07.075Z,99.90
2019-06-07T00:40:17.373Z,99.90
2019-06-07T00:43:16.889Z,99.90
2019-06-07T00:46:18.839Z,99.90
2019-06-07T00:49:36.111Z,99.90
2019-06-07T00:53:11.695Z,99.90
2019-06-07T00:55:28.614Z,99.90
2019-06-07T00:58:30.751Z,99.90
2019-06-07T01:01:31.973Z,99.90
2019-06-07T01:04:33.340Z,99.90
2019-06-07T01:07:34.761Z,99.90
2019-06-07T01:10:53.022Z,99.90
2019-06-07T01:13:39.510Z,99.90
2019-06-07T01:16:56.327Z,99.90
2019-06-07T01:19:43.817Z,99.90
2019-06-07T01:22:45.168Z,99.90
2019-06-07T01:25:46.538Z,99.90
2019-06-07T01:28:48.316Z,99.90
2019-06-07T01:31:49.693Z,99.90
2019-06-07T01:34:51.054Z,99.90
2019-06-07T01:37:52.338Z,99.90
2019-06-07T01:40:53.594Z,99.90
2019-06-07T01:43:54.955Z,99.90
2019-06-07T01:46:56.194Z,99.90
2019-06-07T01:49:57.468Z,99.90
2019-06-07T01:52:58.698Z,99.90
2019-06-07T01:56:00.538Z,99.90
2019-06-07T01:59:01.864Z,99.90
2019-06-07T02:02:03.860Z,99.90
2019-06-07T02:05:07.410Z,99.90
2019-06-07T02:08:08.676Z,99.90
2019-06-07T02:11:10.057Z,99.90
2019-06-07T02:14:11.422Z,99.90
2019-06-07T02:17:12.656Z,99.90
2019-06-07T02:20:14.564Z,99.90
2019-06-07T02:23:15.870Z,99.90
2019-06-07T02:26:17.265Z,99.90
2019-06-07T02:29:18.609Z,99.90
2019-06-07T02:32:21.577Z,99.90
2019-06-07T02:35:26.403Z,99.90
2019-06-07T02:38:29.712Z,99.90
2019-06-07T02:41:35.941Z,99.90
2019-06-07T02:44:38.544Z,99.90
2019-06-07T02:47:38.070Z,99.90
2019-06-07T02:50:39.080Z,99.90
2019-06-07T02:53:40.581Z,99.90
2019-06-07T02:56:56.096Z,99.90
2019-06-07T03:00:05.775Z,99.90
2019-06-07T03:02:48.318Z,99.90
2019-06-07T03:05:49.564Z,99.90
2019-06-07T03:08:51.742Z,99.90
2019-06-07T03:12:14.725Z,99.90
2019-06-07T03:15:32.707Z,99.90
2019-06-07T03:18:41.622Z,99.90
2019-06-07T03:21:42.920Z,99.90
2019-06-07T03:24:44.454Z,99.90
2019-06-07T03:27:49.905Z,99.90
2019-06-07T03:31:01.683Z,99.90
2019-06-07T03:33:53.554Z,99.90
2019-06-07T03:36:54.793Z,99.90
2019-06-07T03:39:56.099Z,99.90
2019-06-07T03:42:57.335Z,99.90
2019-06-07T03:45:58.653Z,99.90
2019-06-07T03:48:59.876Z,99.90
2019-06-07T03:52:01.508Z,99.90
2019-06-07T03:55:04.658Z,99.90
2019-06-07T04:01:09.079Z,99.90
2019-06-07T04:04:10.762Z,99.90
2019-06-07T04:07:12.010Z,99.90
2019-06-07T04:10:13.586Z,99.90
2019-06-07T04:13:15.405Z,99.90
2019-06-07T04:16:16.698Z,99.90
2019-06-07T04:19:18.064Z,99.90
2019-06-07T04:22:19.366Z,99.90
2019-06-07T04:25:20.610Z,99.90
2019-06-07T04:28:22.306Z,99.90
2019-06-07T04:31:23.650Z,99.90
2019-06-07T04:34:25.268Z,99.90
2019-06-07T04:37:28.254Z,99.90
2019-06-07T04:40:39.067Z,99.90
2019-06-07T04:43:41.159Z,99.90
2019-06-07T04:46:45.846Z,99.90
2019-06-07T04:49:47.483Z,99.90
2019-06-07T04:52:49.125Z,99.90
2019-06-07T04:55:50.374Z,99.90
2019-06-07T04:58:51.633Z,99.90
2019-06-07T05:01:52.981Z,99.90
2019-06-07T05:04:54.242Z,99.90
2019-06-07T05:07:55.864Z,99.30
2019-06-07T05:10:57.485Z,99.50
2019-06-07T05:13:58.711Z,99.00
2019-06-07T05:16:59.981Z,99.10
2019-06-07T05:20:01.735Z,98.80
2019-06-07T05:23:03.046Z,98.00
2019-06-07T05:26:04.290Z,97.80
2019-06-07T05:29:05.565Z,97.10
2019-06-07T05:32:07.704Z,97.20
2019-06-07T05:35:11.091Z,97.40
2019-06-07T05:38:12.420Z,98.10
2019-06-07T05:41:13.795Z,97.40
2019-06-07T05:44:15.303Z,97.00
2019-06-07T05:47:16.635Z,97.60
2019-06-07T05:50:38.391Z,96.90
2019-06-07T05:53:21.151Z,96.00
2019-06-07T05:56:22.510Z,95.80
2019-06-07T05:59:23.777Z,96.40
2019-06-07T06:02:25.226Z,96.30
2019-06-07T06:05:34.570Z,94.80
2019-06-07T06:08:30.151Z,93.70
2019-06-07T06:11:47.096Z,93.80
2019-06-07T06:14:35.369Z,92.90
2019-06-07T06:17:42.676Z,93.20
2019-06-07T06:21:05.331Z,92.80
2019-06-07T06:23:47.599Z,91.30
2019-06-07T06:26:54.085Z,92.90
2019-06-07T06:29:52.428Z,92.20
2019-06-07T06:32:58.108Z,91.30
2019-06-07T06:35:56.754Z,91.50
2019-06-07T06:38:58.296Z,91.90
2019-06-07T06:42:03.740Z,91.80
2019-06-07T06:45:07.518Z,91.50
2019-06-07T06:48:08.814Z,89.70
2019-06-07T06:51:10.162Z,88.40
2019-06-07T06:54:11.440Z,88.40
2019-06-07T06:57:19.504Z,88.70
2019-06-07T07:00:16.475Z,86.50
2019-06-07T07:06:26.402Z,86.20
2019-06-07T07:09:25.130Z,83.50
2019-06-07T07:12:26.540Z,79.80
2019-06-07T07:15:27.875Z,79.80
2019-06-07T07:18:29.164Z,84.00
2019-06-07T07:21:30.664Z,80.50
2019-06-07T07:24:31.915Z,82.40
2019-06-07T07:27:55.395Z,81.10
2019-06-07T07:30:57.381Z,78.80
2019-06-07T07:37:03.943Z,79.60
2019-06-07T07:40:54.881Z,80.80
2019-06-07T07:43:10.929Z,80.60
2019-06-07T07:46:29.798Z,78.40
2019-06-07T07:49:15.661Z,76.90
2019-06-07T07:52:16.909Z,79.00
2019-06-07T07:55:18.330Z,76.70
2019-06-07T07:58:19.577Z,77.80
2019-06-07T08:01:20.831Z,78.90
2019-06-07T08:04:39.719Z,75.70
2019-06-07T08:07:25.163Z,78.30
2019-06-07T08:10:26.617Z,74.60
2019-06-07T08:13:28.114Z,73.20
2019-06-07T08:16:30.701Z,71.50
2019-06-07T08:19:32.096Z,77.20
2019-06-07T08:22:35.333Z,75.00
2019-06-07T08:25:36.617Z,72.00
2019-06-07T08:28:38.561Z,70.50
2019-06-07T08:31:40.197Z,71.20
2019-06-07T08:34:42.739Z,72.30
2019-06-07T08:38:14.816Z,70.50
2019-06-07T08:40:53.660Z,68.80
2019-06-07T08:43:53.212Z,70.40
2019-06-07T08:47:13.956Z,71.10
2019-06-07T08:50:04.370Z,74.70
2019-06-07T08:53:11.544Z,69.20
2019-06-07T08:56:09.853Z,68.60
2019-06-07T08:59:11.383Z,68.30
2019-06-07T09:02:23.228Z,73.50
2019-06-07T09:05:14.250Z,69.30
2019-06-07T09:08:29.072Z,71.80
2019-06-07T09:11:18.585Z,73.00
2019-06-07T09:14:19.958Z,74.40
2019-06-07T09:17:22.496Z,69.80
2019-06-07T09:20:45.314Z,67.40
2019-06-07T09:23:46.557Z,65.40
2019-06-07T09:26:49.855Z,65.90
2019-06-07T09:29:51.295Z,69.80
2019-06-07T09:32:53.310Z,66.40
2019-06-07T09:35:56.209Z,65.60
2019-06-07T09:39:02.571Z,61.80
2019-06-07T09:42:08.384Z,62.20
2019-06-07T09:45:08.931Z,65.40
2019-06-07T09:48:13.823Z,62.50
2019-06-07T09:51:19.734Z,63.20
2019-06-07T09:55:02.340Z,62.40
2019-06-07T09:57:19.137Z,64.30
2019-06-07T10:00:39.893Z,61.90
2019-06-07T10:03:25.854Z,62.20
2019-06-07T10:06:27.257Z,59.80
2019-06-07T10:12:31.863Z,58.90
2019-06-07T10:15:33.121Z,60.00
2019-06-07T10:18:34.532Z,58.20
2019-06-07T10:21:35.943Z,59.70
2019-06-07T10:24:37.193Z,61.90
2019-06-07T10:27:38.553Z,59.30
2019-06-07T10:30:40.700Z,59.20
2019-06-07T10:33:44.200Z,60.80
2019-06-07T10:36:45.346Z,61.10
2019-06-07T10:39:48.949Z,62.10
2019-06-07T10:42:50.029Z,57.30
2019-06-07T10:45:51.321Z,52.30
2019-06-07T10:48:52.562Z,53.20
2019-06-07T10:51:53.937Z,57.10
2019-06-07T10:54:55.175Z,58.10
2019-06-07T10:57:56.471Z,59.00
2019-06-07T11:00:57.828Z,58.10
2019-06-07T11:03:59.106Z,55.00
2019-06-07T11:07:00.389Z,52.20
2019-06-07T11:10:11.689Z,52.40
2019-06-07T11:13:10.392Z,52.70
2019-06-07T11:16:13.082Z,52.70
2019-06-07T11:19:17.808Z,51.30
2019-06-07T11:22:18.593Z,50.90
2019-06-07T11:25:20.326Z,52.90
2019-06-07T11:28:21.590Z,53.60
2019-06-07T11:31:23.042Z,52.20
2019-06-07T11:34:24.857Z,47.30
2019-06-07T11:37:26.092Z,50.20
2019-06-07T11:40:35.039Z,48.20
2019-06-07T11:43:30.982Z,45.00
2019-06-07T11:46:32.362Z,46.80
2019-06-07T11:49:33.975Z,47.60
2019-06-07T11:52:35.345Z,47.50
2019-06-07T11:55:37.193Z,47.80
2019-06-07T11:58:38.661Z,44.70
2019-06-07T12:01:40.127Z,43.80
2019-06-07T12:04:41.393Z,41.80
2019-06-07T12:07:42.647Z,44.20
2019-06-07T12:10:44.054Z,47.70
2019-06-07T12:13:45.407Z,47.70
2019-06-07T12:16:47.746Z,47.00
2019-06-07T12:19:49.077Z,47.40
2019-06-07T12:22:51.016Z,44.90
2019-06-07T12:25:52.982Z,42.50
2019-06-07T12:28:54.296Z,44.00
2019-06-07T12:31:55.638Z,44.60
2019-06-07T12:34:56.906Z,42.40
2019-06-07T12:38:01.115Z,41.10
2019-06-07T12:41:03.530Z,41.90
2019-06-07T12:44:05.195Z,38.40
2019-06-07T12:47:06.529Z,39.40
2019-06-07T12:50:09.094Z,36.20
2019-06-07T12:53:10.770Z,37.80
2019-06-07T12:56:12.006Z,36.40
2019-06-07T12:59:13.889Z,36.50
2019-06-07T13:02:16.409Z,35.40
2019-06-07T13:05:19.829Z,37.60
2019-06-07T13:08:22.039Z,35.10
2019-06-07T13:11:29.588Z,38.20
2019-06-07T13:14:28.510Z,40.70
2019-06-07T13:17:29.963Z,39.30
2019-06-07T13:20:33.602Z,38.40
2019-06-07T13:23:35.483Z,37.10
2019-06-07T13:26:38.229Z,37.80
2019-06-07T13:29:40.008Z,41.70
2019-06-07T13:32:41.378Z,40.80
2019-06-07T13:35:46.918Z,38.00
2019-06-07T13:38:48.929Z,36.10
2019-06-07T13:41:52.942Z,37.50
2019-06-07T13:44:54.729Z,35.40
2019-06-07T13:47:56.327Z,35.10
2019-06-07T13:50:59.126Z,38.70
2019-06-07T13:54:01.345Z,43.10
2019-06-07T13:57:05.016Z,43.60
2019-06-07T14:00:11.215Z,45.50
2019-06-07T14:03:13.178Z,47.00
2019-06-07T14:06:18.956Z,46.10
2019-06-07T14:09:21.214Z,44.40
2019-06-07T14:12:24.158Z,42.20
2019-06-07T14:15:26.479Z,41.40
2019-06-07T14:18:28.743Z,39.50
2019-06-07T14:21:35.592Z,40.60
2019-06-07T14:24:37.746Z,42.60
2019-06-07T14:27:41.057Z,40.70
2019-06-07T14:30:42.872Z,43.40
2019-06-07T14:33:44.154Z,40.90
2019-06-07T14:36:45.815Z,44.60
2019-06-07T14:39:48.604Z,47.00
2019-06-07T14:42:50.206Z,49.70
2019-06-07T14:45:52.385Z,50.40
2019-06-07T14:48:57.063Z,54.40
2019-06-07T14:51:58.581Z,57.10
2019-06-07T14:55:00.206Z,60.00
2019-06-07T14:58:01.989Z,61.90
2019-06-07T15:01:03.692Z,62.60
2019-06-07T15:04:05.132Z,63.30
2019-06-07T15:07:08.576Z,61.70
2019-06-07T15:10:11.483Z,60.70
2019-06-07T15:13:12.901Z,61.10
2019-06-07T15:16:15.216Z,59.40
2019-06-07T15:19:16.463Z,59.20
2019-06-07T15:22:18.179Z,59.30
2019-06-07T15:25:19.983Z,58.90
2019-06-07T15:28:25.719Z,58.60
2019-06-07T15:31:27.912Z,59.20
2019-06-07T15:34:32.274Z,58.30
2019-06-07T15:37:34.570Z,58.70
2019-06-07T15:40:37.419Z,58.70
2019-06-07T15:43:39.375Z,59.70
2019-06-07T15:46:44.294Z,60.70
2019-06-07T15:49:48.005Z,60.60
2019-06-07T15:52:54.436Z,61.20
2019-06-07T15:55:56.776Z,61.50
2019-06-07T15:58:58.185Z,58.20
2019-06-07T16:01:59.749Z,57.00
2019-06-07T16:05:01.183Z,54.10
2019-06-07T16:08:04.180Z,51.10
2019-06-07T16:11:05.618Z,49.20
2019-06-07T16:14:07.105Z,46.80
2019-06-07T16:17:08.488Z,50.30
2019-06-07T16:20:10.249Z,52.70
2019-06-07T16:23:12.383Z,53.90
2019-06-07T16:26:14.530Z,53.20
2019-06-07T16:29:16.134Z,54.30
2019-06-07T16:32:17.502Z,57.30
2019-06-07T16:35:19.679Z,58.90
2019-06-07T16:38:21.123Z,58.90
2019-06-07T16:41:23.091Z,61.60
2019-06-07T16:44:25.508Z,63.10
2019-06-07T16:47:27.368Z,66.90
2019-06-07T16:50:28.842Z,69.30
2019-06-07T16:53:30.902Z,71.70
2019-06-07T16:56:32.575Z,74.50
2019-06-07T16:59:34.334Z,74.40
2019-06-07T17:02:36.071Z,76.80
2019-06-07T17:05:37.803Z,78.10
2019-06-07T17:08:40.154Z,78.30
2019-06-07T17:11:42.333Z,81.00
2019-06-07T17:14:44.643Z,78.70
2019-06-07T17:17:47.200Z,79.60
2019-06-07T17:20:49.568Z,81.00
2019-06-07T17:23:52.520Z,80.40
2019-06-07T17:26:55.639Z,81.50
2019-06-07T17:30:00.701Z,82.50
2019-06-07T17:33:04.055Z,81.20
2019-06-07T17:36:06.118Z,82.80
2019-06-07T17:39:09.535Z,83.90
2019-06-07T17:42:12.831Z,86.10
2019-06-07T17:45:15.858Z,85.00
2019-06-07T17:48:24.001Z,86.00
2019-06-07T17:51:28.191Z,84.20
2019-06-07T17:54:31.632Z,85.30
2019-06-07T17:57:35.347Z,84.90
2019-06-07T18:00:44.644Z,85.80
2019-06-07T18:03:47.080Z,84.80
2019-06-07T18:06:51.490Z,84.50
2019-06-07T18:09:55.374Z,84.50
2019-06-07T18:12:57.700Z,85.60
2019-06-07T18:15:59.935Z,86.70
2019-06-07T18:19:03.171Z,87.80
2019-06-07T18:22:06.101Z,89.50
2019-06-07T18:25:09.058Z,90.30
2019-06-07T18:28:12.206Z,90.50
2019-06-07T18:31:15.706Z,90.80
2019-06-07T18:34:19.506Z,91.10
2019-06-07T18:37:25.073Z,91.50
2019-06-07T18:40:27.633Z,91.90
2019-06-07T18:43:33.309Z,92.30
2019-06-07T18:46:36.235Z,92.80
2019-06-07T18:49:38.602Z,93.10
2019-06-07T18:52:43.059Z,93.50
2019-06-07T18:55:44.630Z,93.90
2019-06-07T18:58:47.116Z,94.10
2019-06-07T19:01:50.006Z,94.40
2019-06-07T19:04:52.268Z,94.90
2019-06-07T19:07:54.706Z,95.00
2019-06-07T19:10:56.904Z,95.50
2019-06-07T19:13:59.332Z,96.00
2019-06-07T19:17:01.440Z,96.40
2019-06-07T19:20:07.943Z,96.80
2019-06-07T19:23:12.756Z,96.70
2019-06-07T19:26:14.951Z,97.00
2019-06-07T19:29:18.506Z,97.00
2019-06-07T19:32:21.170Z,97.10
2019-06-07T19:35:23.280Z,97.20
2019-06-07T19:38:25.100Z,97.70
2019-06-07T19:41:26.961Z,98.10
2019-06-07T19:44:28.888Z,98.30
2019-06-07T19:47:30.994Z,98.90
2019-06-07T19:50:32.730Z,99.00
2019-06-07T19:53:34.867Z,99.00
2019-06-07T19:56:38.730Z,99.10
2019-06-07T19:59:40.650Z,99.50
2019-06-07T20:02:42.372Z,99.90
2019-06-07T20:05:45.142Z,99.90
2019-06-07T20:08:47.066Z,99.90
2019-06-07T20:11:48.555Z,99.90
2019-06-07T20:14:53.739Z,99.90
2019-06-07T20:17:55.092Z,99.90
2019-06-07T20:21:02.610Z,99.90
2019-06-07T20:24:22.800Z,99.90
2019-06-07T20:27:08.559Z,99.90
2019-06-07T20:30:11.457Z,99.90
2019-06-07T20:33:12.706Z,99.90
2019-06-07T20:36:14.330Z,99.90
2019-06-07T20:39:15.679Z,99.90
2019-06-07T20:42:17.082Z,99.90
2019-06-07T20:45:32.584Z,99.90
2019-06-07T20:48:21.775Z,99.90
2019-06-07T20:51:23.007Z,99.90
2019-06-07T20:54:24.654Z,99.90
2019-06-07T20:57:26.032Z,99.90
2019-06-07T21:00:27.839Z,99.90
2019-06-07T21:03:29.090Z,99.90
2019-06-07T21:06:30.855Z,99.90
2019-06-07T21:09:32.458Z,99.90
2019-06-07T21:12:33.759Z,99.90
2019-06-07T21:15:47.949Z,99.90
2019-06-07T21:18:39.180Z,99.90
2019-06-07T21:21:40.612Z,99.90
2019-06-07T21:24:41.977Z,99.90
2019-06-07T21:27:43.313Z,99.90
2019-06-07T21:30:44.701Z,99.90
2019-06-07T21:33:46.567Z,99.90
2019-06-07T21:36:48.171Z,99.90
2019-06-07T21:39:50.039Z,99.90
2019-06-07T21:42:51.842Z,99.90
2019-06-07T21:46:04.692Z,99.90
2019-06-07T21:48:56.809Z,99.90
2019-06-07T21:51:58.293Z,99.90
2019-06-07T21:54:59.528Z,99.90
2019-06-07T21:58:01.162Z,99.90
2019-06-07T22:01:09.994Z,99.90
2019-06-07T22:04:11.809Z,99.90
2019-06-07T22:07:13.660Z,99.90
2019-06-07T22:10:15.407Z,99.90
2019-06-07T22:13:16.715Z,99.90
2019-06-07T22:16:28.613Z,99.90
2019-06-07T22:19:21.227Z,99.90
2019-06-07T22:22:22.857Z,99.90
2019-06-07T22:25:25.056Z,99.90
2019-06-07T22:28:26.454Z,99.90
2019-06-07T22:31:31.017Z,99.90
2019-06-07T22:34:34.115Z,99.90
2019-06-07T22:37:35.377Z,99.90
2019-06-07T22:40:36.619Z,99.90
2019-06-07T22:43:37.918Z,99.90
2019-06-07T22:46:41.073Z,99.90
2019-06-07T22:49:42.517Z,99.90
2019-06-07T22:52:43.748Z,99.90
2019-06-07T22:55:47.061Z,99.90
2019-06-07T22:58:48.317Z,99.90
2019-06-07T23:01:49.571Z,99.90
2019-06-07T23:04:50.834Z,99.90
2019-06-07T23:07:52.238Z,99.90
2019-06-07T23:10:53.599Z,99.90
2019-06-07T23:13:54.965Z,99.90
2019-06-07T23:16:56.412Z,99.90
2019-06-07T23:19:57.891Z,99.90
2019-06-07T23:23:01.077Z,99.90
2019-06-07T23:26:02.560Z,99.90
2019-06-07T23:29:04.425Z,99.90
2019-06-07T23:32:05.722Z,99.90
2019-06-07T23:35:07.068Z,99.90
2019-06-07T23:38:08.338Z,99.90
2019-06-07T23:41:09.605Z,99.90
2019-06-07T23:44:13.305Z,99.90
2019-06-07T23:47:16.988Z,99.90
2019-06-07T23:50:17.988Z,99.90
2019-06-07T23:53:19.948Z,99.90
2019-06-07T23:56:23.279Z,99.90
2019-06-07T23:59:24.615Z,99.90
